Aviation Digital Data Service (ADDS)

Output produced by METARs form (0603 UTC 25 June 2018)
found at http://www.aviationweather.gov/adds/metars/
 
METAR text: KVIH 250553Z AUTO 10007KT 10SM CLR 19/18 A2996 RMK AO2 SLP136 T01940183 10244 20194 402500189 53005
Conditions at: KVIH (VICHY/ROLLA , MO, US) observed 0553 UTC 25 June 2018
Temperature: 19.4°C (67°F)
Dewpoint: 18.3°C (65°F) [RH = 93%]
Pressure (altimeter): 29.96 inches Hg (1014.6 mb)
[Sea-level pressure: 1013.6 mb]
Winds: from the E (100 degrees) at 8 MPH (7 knots; 3.6 m/s)
Visibility: 10 or more miles (16+ km)
Ceiling: at least 12,000 feet AGL
Clouds: sky clear below 12,000 feet AGL
Weather: automated observation with no human augmentation;
there may or may not be significant weather present at this time